Kvitbjoern — LM9158 — position and weather

sailwx.info

Track history (hours):
 
Tides and Currents Weather Stations Pressure Air Temp Water Temp Dewpoint Dewpoint Depression Visibility Wind Speed Wind Dir Waves Ship Positions

Kvitbjoern

Last reported at 2014-Oct-30 15:29 UTC. Time now 2014-Oct-31 08:32 UTC.
Position N 66°22' E 012°21'.

Length 10 m.

Type: Fishing. MMSI: 257454420.

Date/timePositionNaut miles runAvg speedWind from/ knotsBaromVisibWave heightAir tempDewpointWater temp
2014-Oct-30 15:29N 66°22' E 012°21'3 3.7
2014-Oct-30 14:33N 66°22' E 012°30'3 2.0
2014-Oct-30 13:14N 66°23' E 012°35'4 5.3
2014-Oct-30 12:28N 66°23' E 012°25'1 0.6
2014-Oct-30 11:33N 66°23' E 012°26'1 1.2
2014-Oct-30 10:30N 66°22' E 012°24'0 0.3
2014-Oct-30 09:31N 66°22' E 012°23'0 0.3
2014-Oct-30 08:33N 66°22' E 012°23'0 0.2
2014-Oct-30 07:29N 66°22' E 012°23'1 0.8
2014-Oct-30 06:30N 66°22' E 012°21'  
2014-Oct-25 16:33N 66°22' E 012°21'4 4.0
2014-Oct-25 15:32N 66°22' E 012°31'1 0.4
2014-Oct-25 13:30N 66°22' E 012°33'4 3.7
2014-Oct-25 12:29N 66°22' E 012°24'0 0.2
2014-Oct-25 11:30N 66°22' E 012°25'0 0.4
2014-Oct-25 10:33N 66°22' E 012°24'0 0.2
2014-Oct-25 09:33N 66°22' E 012°23'0 0.1
2014-Oct-25 08:33N 66°22' E 012°23'0 0.3
2014-Oct-25 07:33N 66°22' E 012°24'1 1.1
2014-Oct-25 06:33N 66°23' E 012°26'2 2.0
2014-Oct-25 05:33N 66°22' E 012°21'0 0.0
2014-Oct-24 14:30N 66°22' E 012°21'0 0.0
2014-Oct-23 16:07N 66°22' E 012°21'0 0.0
2014-Oct-23 15:25N 66°22' E 012°21'0 0.0
2014-Oct-23 14:31N 66°22' E 012°21'0 0.0
2014-Oct-23 13:25N 66°22' E 012°21'0 0.0
2014-Oct-23 12:31N 66°22' E 012°21'0 0.0
2014-Oct-23 11:31N 66°22' E 012°21'0 0.0
2014-Oct-23 10:31N 66°22' E 012°21'0 0.0
2014-Oct-22 14:29N 66°22' E 012°21'0 0.0
2014-Oct-22 13:29N 66°22' E 012°21'0 0.0
2014-Oct-22 12:29N 66°22' E 012°21'0 0.0
2014-Oct-22 11:29N 66°22' E 012°21'0 0.0
2014-Oct-21 13:33N 66°22' E 012°21'0 0.0
2014-Oct-21 12:33N 66°22' E 012°21'0 0.0
2014-Oct-21 11:33N 66°22' E 012°21'  
Track history (hours):
 
Tides and Currents Weather Stations Pressure Air Temp Water Temp Dewpoint Dewpoint Depression Visibility Wind Speed Wind Dir Waves Ship Positions

Kvitbjoern

Last reported at 2014-Oct-30 15:29 UTC. Time now 2014-Oct-31 08:32 UTC.
Position N 66°22' E 012°21'.

Length 10 m.

Type: Fishing. MMSI: 257454420.

Date/timePositionNaut miles runAvg speedWind from/ knotsBaromVisibWave heightAir tempDewpointWater temp
2014-Oct-30 15:29N 66°22' E 012°21'3 3.7
2014-Oct-30 14:33N 66°22' E 012°30'3 2.0
2014-Oct-30 13:14N 66°23' E 012°35'4 5.3
2014-Oct-30 12:28N 66°23' E 012°25'1 0.6
2014-Oct-30 11:33N 66°23' E 012°26'1 1.2
2014-Oct-30 10:30N 66°22' E 012°24'0 0.3
2014-Oct-30 09:31N 66°22' E 012°23'0 0.3
2014-Oct-30 08:33N 66°22' E 012°23'0 0.2
2014-Oct-30 07:29N 66°22' E 012°23'1 0.8
2014-Oct-30 06:30N 66°22' E 012°21'  
2014-Oct-25 16:33N 66°22' E 012°21'4 4.0
2014-Oct-25 15:32N 66°22' E 012°31'1 0.4
2014-Oct-25 13:30N 66°22' E 012°33'4 3.7
2014-Oct-25 12:29N 66°22' E 012°24'0 0.2
2014-Oct-25 11:30N 66°22' E 012°25'0 0.4
2014-Oct-25 10:33N 66°22' E 012°24'0 0.2
2014-Oct-25 09:33N 66°22' E 012°23'0 0.1
2014-Oct-25 08:33N 66°22' E 012°23'0 0.3
2014-Oct-25 07:33N 66°22' E 012°24'1 1.1
2014-Oct-25 06:33N 66°23' E 012°26'2 2.0
2014-Oct-25 05:33N 66°22' E 012°21'0 0.0
2014-Oct-24 14:30N 66°22' E 012°21'0 0.0
2014-Oct-23 16:07N 66°22' E 012°21'0 0.0
2014-Oct-23 15:25N 66°22' E 012°21'0 0.0
2014-Oct-23 14:31N 66°22' E 012°21'0 0.0
2014-Oct-23 13:25N 66°22' E 012°21'0 0.0
2014-Oct-23 12:31N 66°22' E 012°21'0 0.0
2014-Oct-23 11:31N 66°22' E 012°21'0 0.0
2014-Oct-23 10:31N 66°22' E 012°21'0 0.0
2014-Oct-22 14:29N 66°22' E 012°21'0 0.0
2014-Oct-22 13:29N 66°22' E 012°21'0 0.0
2014-Oct-22 12:29N 66°22' E 012°21'0 0.0
2014-Oct-22 11:29N 66°22' E 012°21'0 0.0
2014-Oct-21 13:33N 66°22' E 012°21'0 0.0
2014-Oct-21 12:33N 66°22' E 012°21'0 0.0
2014-Oct-21 11:33N 66°22' E 012°21'  

Dump ship's entire track history